Federal Kumano — VRYL4 — position and weather

sailwx.info

Track history (hours):
 
Tides and Currents Weather Stations Pressure Air Temp Water Temp Dewpoint Dewpoint Depression Visibility Wind Speed Wind Dir Waves Ship Positions

Federal Kumano

Last reported at 2014-Aug-20 19:33 UTC. Time now 2014-Aug-22 06:01 UTC.
Position N 50°43' W 005°31'.

Length 200 m; draft 6 m.

Type: Cargo ship. MMSI: 477284000.

Date/timePositionNaut miles runAvg speedWind from/ knotsBaromVisibWave heightAir tempDewpointWater temp
2014-Aug-20 19:33N 50°43' W 005°31'1812.5
2014-Aug-20 18:08N 50°28' W 005°46'95 3.1
2014-Aug-19 11:16N 52°02' W 005°47'1113.2
2014-Aug-19 10:25N 52°13' W 005°40'11913.4
2014-Aug-19 01:32N 54°03' W 004°27'4 3.9
2014-Aug-19 00:33N 54°06' W 004°24'1111.3
2014-Aug-18 23:33N 53°57' W 004°12'1312.8
2014-Aug-18 22:33N 53°47' W 003°60'1312.8
2014-Aug-18 21:33N 53°37' W 003°47'1111.1
2014-Aug-18 20:33N 53°33' W 003°30'1312.8
2014-Aug-18 19:33N 53°32' W 003°08'6 4.7
2014-Aug-18 18:15N 53°27' W 003°01'0 0.6
2014-Aug-18 17:33N 53°28' W 003°01'0 0.0
2014-Aug-18 16:14N 53°28' W 003°01'0 0.0
2014-Aug-18 15:32N 53°28' W 003°01'0 0.0
2014-Aug-18 14:20N 53°28' W 003°01'0 0.0
2014-Aug-18 13:26N 53°28' W 003°01'0 0.0
2014-Aug-18 12:32N 53°28' W 003°01'0 0.0
2014-Aug-18 11:26N 53°28' W 003°01'0 0.0
2014-Aug-18 10:32N 53°28' W 003°01'0 0.0
2014-Aug-18 09:29N 53°28' W 003°01'0 0.0
2014-Aug-18 06:11N 53°28' W 003°01'0 0.0
2014-Aug-18 05:26N 53°28' W 003°01'0 0.0
2014-Aug-18 04:26N 53°28' W 003°01'0 0.0
2014-Aug-17 16:05N 53°28' W 003°01'0 0.0
2014-Aug-17 11:11N 53°28' W 003°01'0 0.0
2014-Aug-17 07:05N 53°28' W 003°01'0 0.0
2014-Aug-17 06:26N 53°28' W 003°01'0 0.0
2014-Aug-17 05:32N 53°28' W 003°01'0 0.0
2014-Aug-17 03:23N 53°28' W 003°01'0 0.0
2014-Aug-17 02:32N 53°28' W 003°01'0 0.0
2014-Aug-17 01:29N 53°28' W 003°01'0 0.0
2014-Aug-17 00:26N 53°28' W 003°01'0 0.0
2014-Aug-16 23:14N 53°28' W 003°01'0 0.0
2014-Aug-16 22:32N 53°28' W 003°01'0 0.0
2014-Aug-16 21:32N 53°28' W 003°01'0 0.0
2014-Aug-16 20:26N 53°28' W 003°01'0 0.0
2014-Aug-16 19:32N 53°28' W 003°01'0 0.0
2014-Aug-16 18:32N 53°28' W 003°01'0 0.0
2014-Aug-16 17:32N 53°28' W 003°01'0 0.0
2014-Aug-16 16:26N 53°28' W 003°01'0 0.0
2014-Aug-16 15:20N 53°28' W 003°01'0 0.0
2014-Aug-16 14:32N 53°28' W 003°01'0 0.0
2014-Aug-16 13:26N 53°28' W 003°01'0 0.0
2014-Aug-16 09:14N 53°28' W 003°01'0 0.0
2014-Aug-16 05:32N 53°28' W 003°01'0 0.0
2014-Aug-16 02:20N 53°28' W 003°01'0 0.0
2014-Aug-15 22:26N 53°28' W 003°01'0 0.0
2014-Aug-15 21:20N 53°28' W 003°01'0 0.0
2014-Aug-15 19:32N 53°28' W 003°01'0 0.0
2014-Aug-15 18:08N 53°28' W 003°01'0 0.0
2014-Aug-15 14:26N 53°28' W 003°01'0 0.0
2014-Aug-15 13:08N 53°28' W 003°01'0 0.0
2014-Aug-15 08:32N 53°28' W 003°01'0 0.0
2014-Aug-15 06:17N 53°28' W 003°01'0 0.0
2014-Aug-15 05:20N 53°28' W 003°01'0 0.0
2014-Aug-15 04:26N 53°28' W 003°01'0 0.0
2014-Aug-15 03:29N 53°28' W 003°01'0 0.0
2014-Aug-15 01:26N 53°28' W 003°01'0 0.0
2014-Aug-14 21:32N 53°28' W 003°01'0 0.0
2014-Aug-14 14:32N 53°28' W 003°01'0 0.0
2014-Aug-14 13:20N 53°28' W 003°01'0 0.0
2014-Aug-14 12:29N 53°28' W 003°01'0 0.0
2014-Aug-14 11:32N 53°28' W 003°01'0 0.0
2014-Aug-14 00:23N 53°28' W 003°01'0 0.0
2014-Aug-13 23:29N 53°28' W 003°01'0 0.0
2014-Aug-13 22:29N 53°28' W 003°01'0 0.0
2014-Aug-13 21:29N 53°28' W 003°01'0 0.0
2014-Aug-13 20:29N 53°28' W 003°01'0 0.0
2014-Aug-13 19:29N 53°28' W 003°01'0 0.0
2014-Aug-13 18:23N 53°28' W 003°01'0 0.0
2014-Aug-13 17:32N 53°28' W 003°01'0 0.0
2014-Aug-13 16:23N 53°28' W 003°01'0 0.0
2014-Aug-13 15:11N 53°28' W 003°01'0 0.0
2014-Aug-13 13:32N 53°28' W 003°01'0 0.5
2014-Aug-13 12:33N 53°27' W 003°01'2 1.5
2014-Aug-13 11:10N 53°28' W 003°04'5 8.5
2014-Aug-13 10:33N 53°32' W 003°11'8 7.9
2014-Aug-13 09:32N 53°33' W 003°24'0 0.3
2014-Aug-13 08:24N 53°34' W 003°24'0 0.0
2014-Aug-13 07:24N 53°33' W 003°24'0 0.1
2014-Aug-13 06:30N 53°34' W 003°24'0 0.2
2014-Aug-13 05:27N 53°34' W 003°24'0 0.0
2014-Aug-13 04:15N 53°33' W 003°24'0 0.0
2014-Aug-13 03:27N 53°34' W 003°24'0 0.0
2014-Aug-13 02:33N 53°34' W 003°24'1 0.7
2014-Aug-13 01:33N 53°34' W 003°25'10 9.5
2014-Aug-13 00:31N 53°31' W 003°41'1211.9
2014-Aug-12 23:32N 53°37' W 003°58'1312.8
2014-Aug-12 22:33N 53°47' W 004°10'1212.0
2014-Aug-12 21:33N 53°59' W 004°16'1110.6
2014-Aug-12 20:32N 54°08' W 004°25'5 5.0
2014-Aug-12 19:33N 54°03' W 004°27'27 9.1
2014-Aug-12 16:33N 54°21' W 005°03'1111.4
2014-Aug-12 15:33N 54°32' W 005°10'1010.3
2014-Aug-12 14:33N 54°41' W 005°18'1010.2
2014-Aug-12 13:33N 54°50' W 005°26'1111.0
2014-Aug-12 12:31N 54°59' W 005°37'1212.5
2014-Aug-12 11:33N 55°09' W 005°50'1514.9
2014-Aug-12 10:33N 55°21' W 006°06'1514.9
2014-Aug-12 09:33N 55°25' W 006°31'1615.5
2014-Aug-12 08:33N 55°30' W 006°58'  
Track history (hours):
 
Tides and Currents Weather Stations Pressure Air Temp Water Temp Dewpoint Dewpoint Depression Visibility Wind Speed Wind Dir Waves Ship Positions

Federal Kumano

Last reported at 2014-Aug-20 19:33 UTC. Time now 2014-Aug-22 06:01 UTC.
Position N 50°43' W 005°31'.

Length 200 m; draft 6 m.

Type: Cargo ship. MMSI: 477284000.

Date/timePositionNaut miles runAvg speedWind from/ knotsBaromVisibWave heightAir tempDewpointWater temp
2014-Aug-20 19:33N 50°43' W 005°31'1812.5
2014-Aug-20 18:08N 50°28' W 005°46'95 3.1
2014-Aug-19 11:16N 52°02' W 005°47'1113.2
2014-Aug-19 10:25N 52°13' W 005°40'11913.4
2014-Aug-19 01:32N 54°03' W 004°27'4 3.9
2014-Aug-19 00:33N 54°06' W 004°24'1111.3
2014-Aug-18 23:33N 53°57' W 004°12'1312.8
2014-Aug-18 22:33N 53°47' W 003°60'1312.8
2014-Aug-18 21:33N 53°37' W 003°47'1111.1
2014-Aug-18 20:33N 53°33' W 003°30'1312.8
2014-Aug-18 19:33N 53°32' W 003°08'6 4.7
2014-Aug-18 18:15N 53°27' W 003°01'0 0.6
2014-Aug-18 17:33N 53°28' W 003°01'0 0.0
2014-Aug-18 16:14N 53°28' W 003°01'0 0.0
2014-Aug-18 15:32N 53°28' W 003°01'0 0.0
2014-Aug-18 14:20N 53°28' W 003°01'0 0.0
2014-Aug-18 13:26N 53°28' W 003°01'0 0.0
2014-Aug-18 12:32N 53°28' W 003°01'0 0.0
2014-Aug-18 11:26N 53°28' W 003°01'0 0.0
2014-Aug-18 10:32N 53°28' W 003°01'0 0.0
2014-Aug-18 09:29N 53°28' W 003°01'0 0.0
2014-Aug-18 06:11N 53°28' W 003°01'0 0.0
2014-Aug-18 05:26N 53°28' W 003°01'0 0.0
2014-Aug-18 04:26N 53°28' W 003°01'0 0.0
2014-Aug-17 16:05N 53°28' W 003°01'0 0.0
2014-Aug-17 11:11N 53°28' W 003°01'0 0.0
2014-Aug-17 07:05N 53°28' W 003°01'0 0.0
2014-Aug-17 06:26N 53°28' W 003°01'0 0.0
2014-Aug-17 05:32N 53°28' W 003°01'0 0.0
2014-Aug-17 03:23N 53°28' W 003°01'0 0.0
2014-Aug-17 02:32N 53°28' W 003°01'0 0.0
2014-Aug-17 01:29N 53°28' W 003°01'0 0.0
2014-Aug-17 00:26N 53°28' W 003°01'0 0.0
2014-Aug-16 23:14N 53°28' W 003°01'0 0.0
2014-Aug-16 22:32N 53°28' W 003°01'0 0.0
2014-Aug-16 21:32N 53°28' W 003°01'0 0.0
2014-Aug-16 20:26N 53°28' W 003°01'0 0.0
2014-Aug-16 19:32N 53°28' W 003°01'0 0.0
2014-Aug-16 18:32N 53°28' W 003°01'0 0.0
2014-Aug-16 17:32N 53°28' W 003°01'0 0.0
2014-Aug-16 16:26N 53°28' W 003°01'0 0.0
2014-Aug-16 15:20N 53°28' W 003°01'0 0.0
2014-Aug-16 14:32N 53°28' W 003°01'0 0.0
2014-Aug-16 13:26N 53°28' W 003°01'0 0.0
2014-Aug-16 09:14N 53°28' W 003°01'0 0.0
2014-Aug-16 05:32N 53°28' W 003°01'0 0.0
2014-Aug-16 02:20N 53°28' W 003°01'0 0.0
2014-Aug-15 22:26N 53°28' W 003°01'0 0.0
2014-Aug-15 21:20N 53°28' W 003°01'0 0.0
2014-Aug-15 19:32N 53°28' W 003°01'0 0.0
2014-Aug-15 18:08N 53°28' W 003°01'0 0.0
2014-Aug-15 14:26N 53°28' W 003°01'0 0.0
2014-Aug-15 13:08N 53°28' W 003°01'0 0.0
2014-Aug-15 08:32N 53°28' W 003°01'0 0.0
2014-Aug-15 06:17N 53°28' W 003°01'0 0.0
2014-Aug-15 05:20N 53°28' W 003°01'0 0.0
2014-Aug-15 04:26N 53°28' W 003°01'0 0.0
2014-Aug-15 03:29N 53°28' W 003°01'0 0.0
2014-Aug-15 01:26N 53°28' W 003°01'0 0.0
2014-Aug-14 21:32N 53°28' W 003°01'0 0.0
2014-Aug-14 14:32N 53°28' W 003°01'0 0.0
2014-Aug-14 13:20N 53°28' W 003°01'0 0.0
2014-Aug-14 12:29N 53°28' W 003°01'0 0.0
2014-Aug-14 11:32N 53°28' W 003°01'0 0.0
2014-Aug-14 00:23N 53°28' W 003°01'0 0.0
2014-Aug-13 23:29N 53°28' W 003°01'0 0.0
2014-Aug-13 22:29N 53°28' W 003°01'0 0.0
2014-Aug-13 21:29N 53°28' W 003°01'0 0.0
2014-Aug-13 20:29N 53°28' W 003°01'0 0.0
2014-Aug-13 19:29N 53°28' W 003°01'0 0.0
2014-Aug-13 18:23N 53°28' W 003°01'0 0.0
2014-Aug-13 17:32N 53°28' W 003°01'0 0.0
2014-Aug-13 16:23N 53°28' W 003°01'0 0.0
2014-Aug-13 15:11N 53°28' W 003°01'0 0.0
2014-Aug-13 13:32N 53°28' W 003°01'0 0.5
2014-Aug-13 12:33N 53°27' W 003°01'2 1.5
2014-Aug-13 11:10N 53°28' W 003°04'5 8.5
2014-Aug-13 10:33N 53°32' W 003°11'8 7.9
2014-Aug-13 09:32N 53°33' W 003°24'0 0.3
2014-Aug-13 08:24N 53°34' W 003°24'0 0.0
2014-Aug-13 07:24N 53°33' W 003°24'0 0.1
2014-Aug-13 06:30N 53°34' W 003°24'0 0.2
2014-Aug-13 05:27N 53°34' W 003°24'0 0.0
2014-Aug-13 04:15N 53°33' W 003°24'0 0.0
2014-Aug-13 03:27N 53°34' W 003°24'0 0.0
2014-Aug-13 02:33N 53°34' W 003°24'1 0.7
2014-Aug-13 01:33N 53°34' W 003°25'10 9.5
2014-Aug-13 00:31N 53°31' W 003°41'1211.9
2014-Aug-12 23:32N 53°37' W 003°58'1312.8
2014-Aug-12 22:33N 53°47' W 004°10'1212.0
2014-Aug-12 21:33N 53°59' W 004°16'1110.6
2014-Aug-12 20:32N 54°08' W 004°25'5 5.0
2014-Aug-12 19:33N 54°03' W 004°27'27 9.1
2014-Aug-12 16:33N 54°21' W 005°03'1111.4
2014-Aug-12 15:33N 54°32' W 005°10'1010.3
2014-Aug-12 14:33N 54°41' W 005°18'1010.2
2014-Aug-12 13:33N 54°50' W 005°26'1111.0
2014-Aug-12 12:31N 54°59' W 005°37'1212.5
2014-Aug-12 11:33N 55°09' W 005°50'1514.9
2014-Aug-12 10:33N 55°21' W 006°06'1514.9
2014-Aug-12 09:33N 55°25' W 006°31'1615.5
2014-Aug-12 08:33N 55°30' W 006°58'  

Dump ship's entire track history